Time,TemperatureF,DewpointF,PressureIn,WindDirection,WindDirectionDegrees,WindSpeedMPH,WindSpeedGustMPH,Humidity,HourlyPrecipIn,Conditions,Clouds,dailyrainin,SolarRadiationWatts/m^2,SoftwareType,DateUTC
2013-07-27 00:02:00,71.9,66.5,29.99,NNE,33,4.6,4.6,83,0.00,CLR,,0.00,0.0,WeatherDisplay:10.37,2013-07-27 10:02:00,
2013-07-27 00:07:00,71.9,66.5,29.99,NE,55,8.1,8.1,83,0.00,CLR,,0.00,0.0,WeatherDisplay:10.37,2013-07-27 10:07:00,
2013-07-27 00:12:00,71.8,66.7,29.99,NE,55,5.0,5.0,84,0.00,CLR,,0.00,0.0,WeatherDisplay:10.37,2013-07-27 10:12:00,
2013-07-27 00:17:00,71.8,66.7,29.98,NNE,22,6.0,6.0,84,0.00,CLR,,0.00,0.0,WeatherDisplay:10.37,2013-07-27 10:17:00,
2013-07-27 00:22:00,71.8,66.7,29.99,NE,53,3.5,3.5,84,0.00,CLR,,0.00,0.0,WeatherDisplay:10.37,2013-07-27 10:22:00,
2013-07-27 00:27:00,71.8,66.7,29.98,NNE,33,4.6,4.6,84,0.00,CLR,,0.00,0.0,WeatherDisplay:10.37,2013-07-27 10:27:00,
2013-07-27 00:32:00,71.8,66.7,29.98,NNE,24,6.9,6.9,84,0.00,CLR,,0.00,0.0,WeatherDisplay:10.37,2013-07-27 10:32:00,
2013-07-27 00:37:00,71.8,66.7,29.98,NNE,30,9.2,9.2,84,0.00,CLR,,0.00,0.0,WeatherDisplay:10.37,2013-07-27 10:37:00,
2013-07-27 00:42:00,71.8,66.4,29.97,ENE,65,4.6,4.7,83,0.00,CLR,,0.00,0.0,WeatherDisplay:10.37,2013-07-27 10:42:00,
2013-07-27 00:47:00,71.9,66.5,29.97,ENE,67,6.9,6.9,83,0.00,CLR,,0.00,0.0,WeatherDisplay:10.37,2013-07-27 10:47:00,
2013-07-27 00:52:00,71.9,66.1,29.97,NE,36,4.0,4.0,82,0.00,CLR,,0.00,0.0,WeatherDisplay:10.37,2013-07-27 10:52:00,
2013-07-27 00:57:00,71.9,66.1,29.97,ENE,69,8.1,8.1,82,0.00,CLR,,0.00,0.0,WeatherDisplay:10.37,2013-07-27 10:57:00,
2013-07-27 01:02:00,71.9,66.1,29.97,NNE,30,9.2,9.2,82,0.00,CLR,,0.00,0.0,WeatherDisplay:10.37,2013-07-27 11:02:00,
2013-07-27 01:07:00,71.9,66.1,29.97,NNE,30,9.2,9.2,82,0.00,CLR,,0.00,0.0,WeatherDisplay:10.37,2013-07-27 11:07:00,
2013-07-27 01:12:00,71.9,66.1,29.97,NNE,13,9.2,9.2,82,0.00,CLR,,0.00,0.0,WeatherDisplay:10.37,2013-07-27 11:12:00,
2013-07-27 01:17:00,71.9,66.5,29.96,ENE,76,8.1,8.1,83,0.00,CLR,,0.00,0.0,WeatherDisplay:10.37,2013-07-27 11:17:00,
2013-07-27 01:22:00,71.9,66.5,29.96,North,5,6.9,6.9,83,0.00,CLR,,0.00,0.0,WeatherDisplay:10.37,2013-07-27 11:22:00,
2013-07-27 01:27:00,71.8,66.4,29.96,NNE,17,4.6,4.6,83,0.00,CLR,,0.00,0.0,WeatherDisplay:10.37,2013-07-27 11:27:00,
2013-07-27 01:32:00,71.7,66.6,29.96,NE,38,4.6,4.6,84,0.00,CLR,,0.00,0.0,WeatherDisplay:10.37,2013-07-27 11:32:00,
2013-07-27 01:37:00,71.6,66.5,29.96,NE,53,4.6,4.6,84,0.00,CLR,,0.00,0.0,WeatherDisplay:10.37,2013-07-27 11:37:00,
2013-07-27 01:42:00,71.6,66.5,29.96,North,355,4.6,4.6,84,0.00,CLR,,0.00,0.0,WeatherDisplay:10.37,2013-07-27 11:42:00,
2013-07-27 01:47:00,71.5,66.4,29.96,ENE,72,4.0,4.0,84,0.00,CLR,,0.00,0.0,WeatherDisplay:10.37,2013-07-27 11:47:00,
2013-07-27 01:53:00,71.4,66.3,29.96,NE,50,3.5,3.5,84,0.00,CLR,,0.00,0.0,WeatherDisplay:10.37,2013-07-27 11:53:00,
2013-07-27 01:58:00,71.4,66.3,29.96,NNE,26,6.9,6.9,84,0.00,CLR,,0.00,0.0,WeatherDisplay:10.37,2013-07-27 11:58:00,
2013-07-27 02:03:00,71.4,66.7,29.96,NNE,25,5.8,5.8,85,0.00,CLR,,0.00,0.0,WeatherDisplay:10.37,2013-07-27 12:03:00,
2013-07-27 02:08:00,71.5,66.8,29.96,ENE,60,6.9,6.9,85,0.00,CLR,,0.00,0.0,WeatherDisplay:10.37,2013-07-27 12:08:00,
2013-07-27 02:13:00,71.5,66.8,29.96,ENE,69,5.8,5.8,85,0.00,CLR,,0.00,0.0,WeatherDisplay:10.37,2013-07-27 12:13:00,
2013-07-27 02:18:00,71.5,66.8,29.96,NNE,26,6.9,6.9,85,0.00,CLR,,0.00,0.0,WeatherDisplay:10.37,2013-07-27 12:18:00,
2013-07-27 02:23:00,71.4,66.7,29.96,NNE,15,9.2,9.2,85,0.00,CLR,,0.00,0.0,WeatherDisplay:10.37,2013-07-27 12:23:00,
2013-07-27 02:28:00,71.4,66.3,29.96,North,11,9.2,9.2,84,0.00,CLR,,0.00,0.0,WeatherDisplay:10.37,2013-07-27 12:28:00,
2013-07-27 02:33:00,71.5,66.4,29.96,NNE,24,4.6,4.6,84,0.00,CLR,,0.00,0.0,WeatherDisplay:10.37,2013-07-27 12:33:00,
2013-07-27 02:38:00,71.5,66.4,29.96,East,94,8.1,8.1,84,0.00,CLR,,0.00,0.0,WeatherDisplay:10.37,2013-07-27 12:38:00,
2013-07-27 02:43:00,71.5,66.4,29.96,NNE,17,5.8,5.8,84,0.00,CLR,,0.00,0.0,WeatherDisplay:10.37,2013-07-27 12:43:00,
2013-07-27 02:48:00,71.5,66.4,29.96,NE,35,8.1,8.1,84,0.00,CLR,,0.00,0.0,WeatherDisplay:10.37,2013-07-27 12:48:00,
2013-07-27 02:53:00,71.5,66.4,29.95,ENE,63,4.6,4.6,84,0.00,CLR,,0.00,0.0,WeatherDisplay:10.37,2013-07-27 12:53:00,
2013-07-27 02:58:00,71.5,66.4,29.96,NNE,18,5.8,5.8,84,0.00,CLR,,0.00,0.0,WeatherDisplay:10.37,2013-07-27 12:58:00,
2013-07-27 03:03:00,71.3,66.2,29.96,ENE,73,6.9,6.9,84,0.00,CLR,,0.00,0.0,WeatherDisplay:10.37,2013-07-27 13:03:00,
2013-07-27 03:08:00,71.2,66.1,29.96,NNE,19,6.9,6.9,84,0.00,CLR,,0.00,0.0,WeatherDisplay:10.37,2013-07-27 13:08:00,
2013-07-27 03:13:00,71.2,66.1,29.96,North,5,6.0,6.0,84,0.00,CLR,,0.00,0.0,WeatherDisplay:10.37,2013-07-27 13:13:00,
2013-07-27 03:18:00,71.1,66.0,29.96,NNE,25,6.9,6.9,84,0.00,CLR,,0.00,0.0,WeatherDisplay:10.37,2013-07-27 13:18:00,
2013-07-27 03:23:00,71.0,65.9,29.96,NE,43,4.6,4.6,84,0.00,CLR,,0.00,0.0,WeatherDisplay:10.37,2013-07-27 13:23:00,
2013-07-27 03:28:00,71.0,65.9,29.96,ENE,60,6.9,6.9,84,0.00,CLR,,0.00,0.0,WeatherDisplay:10.37,2013-07-27 13:28:00,
2013-07-27 03:33:00,71.0,65.9,29.96,North,5,6.9,6.9,84,0.00,CLR,,0.00,0.0,WeatherDisplay:10.37,2013-07-27 13:33:00,
2013-07-27 03:38:00,71.0,65.9,29.96,NE,45,6.9,6.9,84,0.00,CLR,,0.00,0.0,WeatherDisplay:10.37,2013-07-27 13:38:00,
2013-07-27 03:43:00,71.1,66.0,29.96,NNW,345,8.1,8.1,84,0.00,CLR,,0.00,0.0,WeatherDisplay:10.37,2013-07-27 13:43:00,
2013-07-27 03:48:00,71.2,66.1,29.96,NE,49,3.5,3.5,84,0.00,CLR,,0.00,0.0,WeatherDisplay:10.37,2013-07-27 13:48:00,
2013-07-27 03:53:00,71.2,66.1,29.96,NE,48,6.0,6.0,84,0.00,CLR,,0.00,0.0,WeatherDisplay:10.37,2013-07-27 13:53:00,
2013-07-27 03:58:00,71.3,66.2,29.96,ENE,58,5.8,5.8,84,0.00,CLR,,0.00,0.0,WeatherDisplay:10.37,2013-07-27 13:58:00,
2013-07-27 04:03:00,71.4,66.3,29.96,NNW,347,4.0,4.0,84,0.00,CLR,,0.00,0.0,WeatherDisplay:10.37,2013-07-27 14:03:00,
2013-07-27 04:08:00,71.4,66.3,29.96,ENE,65,7.0,7.0,84,0.00,CLR,,0.00,0.0,WeatherDisplay:10.37,2013-07-27 14:08:00,
2013-07-27 04:13:00,71.4,66.3,29.96,ENE,70,5.8,5.8,84,0.00,CLR,,0.00,0.0,WeatherDisplay:10.37,2013-07-27 14:13:00,
2013-07-27 04:18:00,71.3,66.2,29.96,ENE,73,4.6,4.6,84,0.00,CLR,,0.00,0.0,WeatherDisplay:10.37,2013-07-27 14:18:00,
2013-07-27 04:23:00,71.2,66.1,29.96,ENE,71,9.2,9.2,84,0.00,CLR,,0.00,0.0,WeatherDisplay:10.37,2013-07-27 14:23:00,
2013-07-27 04:28:00,71.2,66.1,29.97,East,82,6.0,6.0,84,0.00,CLR,,0.00,0.0,WeatherDisplay:10.37,2013-07-27 14:28:00,
2013-07-27 04:33:00,71.2,66.1,29.96,NNE,26,8.1,8.1,84,0.00,CLR,,0.00,0.0,WeatherDisplay:10.37,2013-07-27 14:33:00,
2013-07-27 04:38:00,71.2,66.1,29.97,ENE,62,5.8,5.8,84,0.00,CLR,,0.00,0.0,WeatherDisplay:10.37,2013-07-27 14:38:00,
2013-07-27 04:43:00,71.2,66.1,29.97,NNW,346,6.9,6.9,84,0.00,CLR,,0.00,0.0,WeatherDisplay:10.37,2013-07-27 14:43:00,
2013-07-27 04:48:00,71.1,66.0,29.96,NE,46,6.9,6.9,84,0.00,CLR,,0.00,0.0,WeatherDisplay:10.37,2013-07-27 14:48:00,
2013-07-27 04:53:00,71.0,65.9,29.97,ENE,73,8.1,8.1,84,0.00,CLR,,0.00,0.0,WeatherDisplay:10.37,2013-07-27 14:53:00,
2013-07-27 04:58:00,71.0,65.6,29.97,NNW,342,6.0,6.0,83,0.00,CLR,,0.00,0.0,WeatherDisplay:10.37,2013-07-27 14:58:00,
2013-07-27 05:03:00,71.1,65.7,29.96,ENE,64,6.9,6.9,83,0.00,CLR,,0.00,0.0,WeatherDisplay:10.37,2013-07-27 15:03:00,
2013-07-27 05:08:00,71.1,65.7,29.97,ENE,60,4.6,4.6,83,0.00,CLR,,0.00,0.0,WeatherDisplay:10.37,2013-07-27 15:08:00,
2013-07-27 05:13:00,71.1,65.7,29.97,NE,40,4.6,4.6,83,0.00,CLR,,0.00,0.0,WeatherDisplay:10.37,2013-07-27 15:13:00,
2013-07-27 05:18:00,71.1,66.0,29.97,North,10,8.1,8.1,84,0.00,CLR,,0.00,0.0,WeatherDisplay:10.37,2013-07-27 15:18:00,
2013-07-27 05:23:00,71.1,66.0,29.97,East,85,11.5,11.5,84,0.00,CLR,,0.00,0.0,WeatherDisplay:10.37,2013-07-27 15:23:00,
2013-07-27 05:28:00,71.1,66.0,29.97,North,360,5.8,5.8,84,0.00,CLR,,0.00,0.0,WeatherDisplay:10.37,2013-07-27 15:28:00,
2013-07-27 05:33:00,71.1,66.0,29.97,NNE,14,6.9,6.9,84,0.00,CLR,,0.00,0.0,WeatherDisplay:10.37,2013-07-27 15:33:00,
2013-07-27 05:38:00,71.0,65.9,29.97,NE,49,8.1,8.1,84,0.00,CLR,,0.00,0.0,WeatherDisplay:10.37,2013-07-27 15:38:00,
2013-07-27 05:43:00,70.9,66.2,29.97,NE,46,4.6,4.6,85,0.00,CLR,,0.00,0.0,WeatherDisplay:10.37,2013-07-27 15:43:00,
2013-07-27 05:48:00,70.8,66.1,29.97,ENE,66,4.6,4.6,85,0.00,CLR,,0.00,0.0,WeatherDisplay:10.37,2013-07-27 15:48:00,
2013-07-27 05:53:00,70.7,66.0,29.97,NNE,25,6.9,6.9,85,0.00,CLR,,0.00,0.0,WeatherDisplay:10.37,2013-07-27 15:53:00,
2013-07-27 05:58:00,70.5,65.8,29.97,North,5,9.2,9.2,85,0.00,CLR,,0.00,0.0,WeatherDisplay:10.37,2013-07-27 15:58:00,
2013-07-27 06:03:00,70.3,65.6,29.97,NE,42,5.8,5.8,85,0.00,CLR,,0.00,0.0,WeatherDisplay:10.37,2013-07-27 16:03:00,
2013-07-27 06:08:00,70.3,65.6,29.97,NE,45,9.2,9.2,85,0.00,SCT,,0.00,5.0,WeatherDisplay:10.37,2013-07-27 16:08:00,
2013-07-27 06:13:00,70.2,65.5,29.97,ENE,65,6.9,6.9,85,0.00,BKN,,0.00,9.0,WeatherDisplay:10.37,2013-07-27 16:13:00,
2013-07-27 06:18:00,70.2,65.1,29.98,NNE,19,6.9,6.9,84,0.00,BKN,,0.00,14.0,WeatherDisplay:10.37,2013-07-27 16:18:00,
2013-07-27 06:23:00,70.2,65.1,29.98,NE,38,5.8,5.8,84,0.00,BKN,,0.00,18.0,WeatherDisplay:10.37,2013-07-27 16:23:00,
2013-07-27 06:28:00,70.3,64.9,29.98,ENE,75,11.5,11.5,83,0.00,BKN,,0.00,23.0,WeatherDisplay:10.37,2013-07-27 16:28:00,
2013-07-27 06:33:00,70.4,65.0,29.98,NNE,15,6.9,6.9,83,0.00,BKN,,0.00,26.0,WeatherDisplay:10.37,2013-07-27 16:33:00,
2013-07-27 06:38:00,70.6,65.2,29.98,NE,42,8.1,8.1,83,0.00,BKN,,0.00,32.0,WeatherDisplay:10.37,2013-07-27 16:38:00,
2013-07-27 06:43:00,70.7,64.9,29.98,East,99,5.8,5.8,82,0.00,BKN,,0.00,39.0,WeatherDisplay:10.37,2013-07-27 16:43:00,
2013-07-27 06:48:00,70.9,65.1,29.98,ENE,61,6.9,6.9,82,0.00,BKN,,0.00,37.0,WeatherDisplay:10.37,2013-07-27 16:48:00,
2013-07-27 06:53:00,71.0,64.9,29.98,North,355,6.9,6.9,81,0.00,SCT,,0.00,65.0,WeatherDisplay:10.37,2013-07-27 16:53:00,
2013-07-27 06:58:00,71.1,65.0,29.98,NE,49,6.9,6.9,81,0.00,SCT,,0.00,76.0,WeatherDisplay:10.37,2013-07-27 16:58:00,
2013-07-27 07:03:00,71.3,65.2,29.98,ENE,57,9.2,9.2,81,0.00,CLR,,0.00,139.0,WeatherDisplay:10.37,2013-07-27 17:03:00,
2013-07-27 07:08:00,71.6,65.1,29.98,NE,35,4.6,4.6,80,0.00,CLR,,0.00,153.0,WeatherDisplay:10.37,2013-07-27 17:08:00,
2013-07-27 07:13:00,71.9,65.4,29.99,North,5,6.9,6.9,80,0.00,CLR,,0.00,156.0,WeatherDisplay:10.37,2013-07-27 17:13:00,
2013-07-27 07:18:00,72.1,65.2,29.98,East,100,8.1,8.1,79,0.00,FEW,,0.00,98.0,WeatherDisplay:10.37,2013-07-27 17:18:00,
2013-07-27 07:23:00,72.2,65.3,29.99,NE,51,9.2,9.2,79,0.00,SCT,,0.00,156.0,WeatherDisplay:10.37,2013-07-27 17:23:00,
2013-07-27 07:28:00,72.3,65.4,29.99,ENE,68,9.2,9.2,79,0.00,CLR,,0.00,250.0,WeatherDisplay:10.37,2013-07-27 17:28:00,
2013-07-27 07:33:00,72.5,65.2,29.99,North,350,10.4,10.4,78,0.00,CLR,,0.00,281.0,WeatherDisplay:10.37,2013-07-27 17:33:00,
2013-07-27 07:38:00,72.9,65.3,29.99,ENE,58,9.2,9.2,77,0.00,CLR,,0.00,302.0,WeatherDisplay:10.37,2013-07-27 17:38:00,
2013-07-27 07:43:00,73.3,65.7,29.99,ENE,78,7.0,7.0,77,0.00,CLR,,0.00,323.0,WeatherDisplay:10.37,2013-07-27 17:43:00,
2013-07-27 07:48:00,73.6,65.6,29.99,NE,46,6.9,6.9,76,0.00,CLR,,0.00,380.0,WeatherDisplay:10.37,2013-07-27 17:48:00,
2013-07-27 07:53:00,73.9,65.5,30.00,ENE,69,8.1,8.1,75,0.00,CLR,,0.00,376.0,WeatherDisplay:10.37,2013-07-27 17:53:00,
2013-07-27 07:58:00,74.2,65.0,29.99,NE,43,9.2,9.2,73,0.00,CLR,,0.00,394.0,WeatherDisplay:10.37,2013-07-27 17:58:00,
2013-07-27 08:03:00,74.5,64.9,29.99,NE,53,4.6,4.6,72,0.00,CLR,,0.00,403.0,WeatherDisplay:10.37,2013-07-27 18:03:00,
2013-07-27 08:08:00,74.8,64.8,30.00,East,82,8.0,8.0,71,0.00,CLR,,0.00,415.0,WeatherDisplay:10.37,2013-07-27 18:08:00,
2013-07-27 08:13:00,75.0,65.0,30.00,ENE,76,6.9,6.9,71,0.00,CLR,,0.00,436.0,WeatherDisplay:10.37,2013-07-27 18:13:00,
2013-07-27 08:18:00,75.3,65.2,30.00,North,355,8.1,8.1,71,0.00,CLR,,0.00,454.0,WeatherDisplay:10.37,2013-07-27 18:18:00,
2013-07-27 08:23:00,75.7,65.6,29.99,NE,49,9.2,9.2,71,0.00,CLR,,0.00,475.0,WeatherDisplay:10.37,2013-07-27 18:23:00,
2013-07-27 08:28:00,75.8,65.3,29.99,ENE,69,10.4,10.4,70,0.00,CLR,,0.00,499.0,WeatherDisplay:10.37,2013-07-27 18:28:00,
2013-07-27 08:33:00,76.1,66.0,29.99,ENE,65,5.8,5.8,71,0.00,CLR,,0.00,540.0,WeatherDisplay:10.37,2013-07-27 18:33:00,
2013-07-27 08:38:00,76.4,65.9,30.00,ENE,71,6.9,6.9,70,0.00,CLR,,0.00,619.0,WeatherDisplay:10.37,2013-07-27 18:38:00,
2013-07-27 08:43:00,76.6,65.7,29.99,East,79,11.5,11.5,69,0.00,CLR,,0.00,605.0,WeatherDisplay:10.37,2013-07-27 18:43:00,
2013-07-27 08:48:00,76.8,66.3,29.99,North,355,6.9,6.9,70,0.00,CLR,,0.00,679.0,WeatherDisplay:10.37,2013-07-27 18:48:00,
2013-07-27 08:53:00,77.1,66.1,29.99,East,94,9.0,9.0,69,0.00,SCT,,0.00,288.0,WeatherDisplay:10.37,2013-07-27 18:53:00,
2013-07-27 08:58:00,77.3,65.9,29.99,ENE,63,9.2,9.2,68,0.00,BKN,,0.00,251.0,WeatherDisplay:10.37,2013-07-27 18:58:00,
2013-07-27 09:03:00,77.1,66.1,30.00,ENE,71,5.0,5.0,69,0.00,BKN,,0.00,276.0,WeatherDisplay:10.37,2013-07-27 19:03:00,
2013-07-27 09:08:00,77.1,66.1,29.99,ENE,64,8.0,8.0,69,0.00,CLR,,0.00,773.0,WeatherDisplay:10.37,2013-07-27 19:08:00,
2013-07-27 09:13:00,77.4,66.0,30.00,ENE,69,11.5,11.5,68,0.00,CLR,,0.00,726.0,WeatherDisplay:10.37,2013-07-27 19:13:00,
2013-07-27 09:18:00,77.5,66.1,30.00,North,355,8.1,8.1,68,0.00,CLR,,0.00,742.0,WeatherDisplay:10.37,2013-07-27 19:18:00,
2013-07-27 09:23:00,77.6,66.2,30.00,North,5,8.1,8.1,68,0.00,CLR,,0.00,694.0,WeatherDisplay:10.37,2013-07-27 19:23:00,
2013-07-27 09:28:00,78.0,65.7,29.99,NE,55,11.5,11.5,66,0.00,CLR,,0.00,745.0,WeatherDisplay:10.37,2013-07-27 19:28:00,
2013-07-27 09:33:00,77.8,65.5,30.00,North,355,9.2,9.2,66,0.00,OVC,,0.00,174.0,WeatherDisplay:10.37,2013-07-27 19:33:00,
2013-07-27 09:38:00,77.6,65.8,30.00,NE,45,8.1,8.1,67,0.00,CLR,,0.00,745.0,WeatherDisplay:10.37,2013-07-27 19:38:00,
2013-07-27 09:43:00,78.0,66.2,29.99,NNE,30,10.4,10.4,67,0.00,CLR,,0.00,756.0,WeatherDisplay:10.37,2013-07-27 19:43:00,
2013-07-27 09:48:00,78.4,66.1,29.99,ENE,71,9.2,9.2,66,0.00,CLR,,0.00,803.0,WeatherDisplay:10.37,2013-07-27 19:48:00,
2013-07-27 09:53:00,78.7,65.5,29.99,East,83,10.4,10.4,64,0.00,CLR,,0.00,863.0,WeatherDisplay:10.37,2013-07-27 19:53:00,
2013-07-27 09:58:00,79.1,65.4,29.99,NNE,27,9.2,9.2,63,0.00,CLR,,0.00,810.0,WeatherDisplay:10.37,2013-07-27 19:58:00,
2013-07-27 10:03:00,79.3,65.6,29.99,ENE,76,6.9,6.9,63,0.00,CLR,,0.00,833.0,WeatherDisplay:10.37,2013-07-27 20:03:00,
2013-07-27 10:08:00,79.7,66.0,29.98,NNE,17,6.0,6.0,63,0.00,CLR,,0.00,824.0,WeatherDisplay:10.37,2013-07-27 20:08:00,
2013-07-27 10:13:00,79.9,65.7,29.99,NE,38,11.5,11.5,62,0.00,CLR,,0.00,849.0,WeatherDisplay:10.37,2013-07-27 20:13:00,
2013-07-27 10:18:00,79.8,65.6,29.98,ENE,59,10.4,10.4,62,0.00,CLR,,0.00,893.0,WeatherDisplay:10.37,2013-07-27 20:18:00,
2013-07-27 10:23:00,79.9,65.2,29.98,ESE,113,15.0,15.0,61,0.00,CLR,,0.00,858.0,WeatherDisplay:10.37,2013-07-27 20:23:00,
2013-07-27 10:28:00,80.0,65.8,29.98,North,5,12.0,12.0,62,0.00,CLR,,0.00,907.0,WeatherDisplay:10.37,2013-07-27 20:28:00,
2013-07-27 10:33:00,80.2,65.5,29.98,North,360,8.1,8.1,61,0.00,CLR,,0.00,884.0,WeatherDisplay:10.37,2013-07-27 20:33:00,
2013-07-27 10:38:00,80.3,64.7,29.98,East,83,10.4,10.4,59,0.00,BKN,,0.00,415.0,WeatherDisplay:10.37,2013-07-27 20:38:00,
2013-07-27 10:43:00,80.6,64.5,29.98,ENE,58,9.2,9.2,58,0.00,CLR,,0.00,870.0,WeatherDisplay:10.37,2013-07-27 20:43:00,
2013-07-27 10:48:00,81.0,64.8,29.98,ENE,64,9.2,9.2,58,0.00,CLR,,0.00,902.0,WeatherDisplay:10.37,2013-07-27 20:48:00,
2013-07-27 10:53:00,81.3,65.1,29.98,ENE,60,9.2,9.2,58,0.00,CLR,,0.00,953.0,WeatherDisplay:10.37,2013-07-27 20:53:00,
2013-07-27 10:58:00,81.2,64.5,29.97,NE,51,12.7,12.7,57,0.00,CLR,,0.00,953.0,WeatherDisplay:10.37,2013-07-27 20:58:00,
2013-07-27 11:03:00,81.1,64.9,29.97,North,5,13.8,13.8,58,0.00,CLR,,0.00,988.0,WeatherDisplay:10.37,2013-07-27 21:03:00,
2013-07-27 11:08:00,81.1,64.9,29.97,ENE,57,10.4,10.4,58,0.00,CLR,,0.00,949.0,WeatherDisplay:10.37,2013-07-27 21:08:00,
2013-07-27 11:13:00,81.1,65.4,29.97,East,82,10.4,10.4,59,0.00,CLR,,0.00,995.0,WeatherDisplay:10.37,2013-07-27 21:13:00,
2013-07-27 11:18:00,81.4,65.7,29.97,NE,53,12.7,12.7,59,0.00,CLR,,0.00,1095.0,WeatherDisplay:10.37,2013-07-27 21:18:00,
2013-07-27 11:23:00,81.4,65.7,29.97,ENE,59,10.4,10.4,59,0.00,CLR,,0.00,1155.0,WeatherDisplay:10.37,2013-07-27 21:23:00,
2013-07-27 11:28:00,81.2,65.5,29.97,ENE,71,11.5,11.5,59,0.00,CLR,,0.00,1134.0,WeatherDisplay:10.37,2013-07-27 21:28:00,
2013-07-27 11:33:00,81.3,65.6,29.97,East,80,12.7,12.7,59,0.00,CLR,,0.00,1167.0,WeatherDisplay:10.37,2013-07-27 21:33:00,
2013-07-27 11:38:00,81.4,66.2,29.97,East,96,14.0,14.0,60,0.00,CLR,,0.00,1178.0,WeatherDisplay:10.37,2013-07-27 21:38:00,
2013-07-27 11:43:00,81.0,66.3,29.97,NE,53,6.9,6.9,61,0.00,BKN,,0.00,450.0,WeatherDisplay:10.37,2013-07-27 21:43:00,
2013-07-27 11:48:00,80.7,66.0,29.97,ENE,58,6.9,6.9,61,0.00,BKN,,0.00,476.0,WeatherDisplay:10.37,2013-07-27 21:48:00,
2013-07-27 11:53:00,80.6,66.4,29.96,ENE,72,11.5,11.5,62,0.00,BKN,,0.00,508.0,WeatherDisplay:10.37,2013-07-27 21:53:00,
2013-07-27 11:58:00,80.5,66.7,29.97,ENE,65,11.5,11.5,63,0.00,BKN,,0.00,476.0,WeatherDisplay:10.37,2013-07-27 21:58:00,
2013-07-27 12:03:00,80.7,66.9,29.96,East,88,13.8,13.8,63,0.00,CLR,,0.00,615.0,WeatherDisplay:10.37,2013-07-27 22:03:00,
2013-07-27 12:08:00,81.0,66.3,29.96,NNE,22,11.5,11.5,61,0.00,CLR,,0.00,1223.0,WeatherDisplay:10.37,2013-07-27 22:08:00,
2013-07-27 12:13:00,81.3,67.0,29.96,NE,56,12.7,12.7,62,0.00,CLR,,0.00,772.0,WeatherDisplay:10.37,2013-07-27 22:13:00,
2013-07-27 12:18:00,81.2,66.9,29.96,NNE,31,11.5,11.5,62,0.00,CLR,,0.00,1229.0,WeatherDisplay:10.37,2013-07-27 22:18:00,
2013-07-27 12:23:00,80.9,66.7,29.95,ENE,78,10.0,10.0,62,0.00,CLR,,0.00,958.0,WeatherDisplay:10.37,2013-07-27 22:23:00,
2013-07-27 12:28:00,80.9,66.7,29.95,NNE,27,11.5,11.5,62,0.00,BKN,,0.00,448.0,WeatherDisplay:10.37,2013-07-27 22:28:00,
2013-07-27 12:33:00,80.8,66.6,29.94,East,81,15.0,15.0,62,0.00,CLR,,0.00,1218.0,WeatherDisplay:10.37,2013-07-27 22:33:00,
2013-07-27 12:38:00,80.7,66.9,29.94,SE,134,8.1,8.1,63,0.00,CLR,,0.00,1218.0,WeatherDisplay:10.37,2013-07-27 22:38:00,
2013-07-27 12:43:00,81.1,67.3,29.94,ENE,75,11.0,11.0,63,0.00,CLR,,0.00,1141.0,WeatherDisplay:10.37,2013-07-27 22:43:00,
2013-07-27 12:48:00,81.2,66.9,29.94,ENE,69,11.0,11.0,62,0.00,CLR,,0.00,1141.0,WeatherDisplay:10.37,2013-07-27 22:48:00,
2013-07-27 12:53:00,81.3,67.5,29.94,East,79,9.0,9.0,63,0.00,CLR,,0.00,1144.0,WeatherDisplay:10.37,2013-07-27 22:53:00,
2013-07-27 12:58:00,81.1,67.3,29.94,East,80,11.0,11.0,63,0.00,CLR,,0.00,1257.0,WeatherDisplay:10.37,2013-07-27 22:58:00,
2013-07-27 13:03:00,81.3,67.5,29.94,ENE,65,9.2,9.2,63,0.00,BKN,,0.00,814.0,WeatherDisplay:10.37,2013-07-27 23:03:00,
2013-07-27 13:08:00,81.4,67.6,29.93,ENE,77,12.7,12.7,63,0.00,FEW,,0.00,701.0,WeatherDisplay:10.37,2013-07-27 23:08:00,
2013-07-27 13:13:00,81.3,67.5,29.93,NE,55,15.0,15.0,63,0.00,SCT,,0.00,566.0,WeatherDisplay:10.37,2013-07-27 23:13:00,
2013-07-27 13:18:00,80.9,67.6,29.93,NE,44,13.8,13.8,64,0.00,BKN,,0.00,432.0,WeatherDisplay:10.37,2013-07-27 23:18:00,
2013-07-27 13:23:00,80.7,67.8,29.94,East,86,12.7,12.7,65,0.00,CLR,,0.00,1132.0,WeatherDisplay:10.37,2013-07-27 23:23:00,
2013-07-27 13:28:00,80.8,67.9,29.93,East,86,11.5,11.5,65,0.00,CLR,,0.00,1132.0,WeatherDisplay:10.37,2013-07-27 23:28:00,
2013-07-27 13:33:00,80.7,67.8,29.93,ENE,64,13.8,13.8,65,0.00,CLR,,0.00,1113.0,WeatherDisplay:10.37,2013-07-27 23:33:00,
2013-07-27 13:38:00,81.0,68.1,29.93,NE,35,12.7,12.7,65,0.00,CLR,,0.00,1313.0,WeatherDisplay:10.37,2013-07-27 23:38:00,
2013-07-27 13:43:00,81.1,68.2,29.93,ENE,65,13.8,13.8,65,0.00,CLR,,0.00,1013.0,WeatherDisplay:10.37,2013-07-27 23:43:00,
2013-07-27 13:48:00,81.1,68.2,29.93,ENE,66,11.5,11.5,65,0.00,CLR,,0.00,1039.0,WeatherDisplay:10.37,2013-07-27 23:48:00,
2013-07-27 13:53:00,81.4,68.5,29.93,NE,41,9.2,9.2,65,0.00,CLR,,0.00,1097.0,WeatherDisplay:10.37,2013-07-27 23:53:00,
2013-07-27 13:58:00,81.7,68.3,29.93,NE,53,11.5,11.5,64,0.00,CLR,,0.00,1114.0,WeatherDisplay:10.37,2013-07-27 23:58:00,
2013-07-27 14:03:00,81.9,68.1,29.92,NE,44,11.5,11.5,63,0.00,CLR,,0.00,1100.0,WeatherDisplay:10.37,2013-07-28 00:03:00,
2013-07-27 14:08:00,81.6,68.2,29.92,NE,53,21.9,21.9,64,0.00,CLR,,0.00,1172.0,WeatherDisplay:10.37,2013-07-28 00:08:00,
2013-07-27 14:13:00,82.2,68.3,29.92,ESE,105,9.2,9.2,63,0.00,CLR,,0.00,1172.0,WeatherDisplay:10.37,2013-07-28 00:13:00,
2013-07-27 14:18:00,82.2,67.9,29.92,ENE,68,11.5,11.5,62,0.00,CLR,,0.00,1174.0,WeatherDisplay:10.37,2013-07-28 00:18:00,
2013-07-27 14:23:00,82.1,67.8,29.92,NE,42,11.5,11.5,62,0.00,CLR,,0.00,1116.0,WeatherDisplay:10.37,2013-07-28 00:23:00,
2013-07-27 14:28:00,82.0,68.2,29.92,ENE,76,13.8,13.8,63,0.00,CLR,,0.00,1095.0,WeatherDisplay:10.37,2013-07-28 00:28:00,
2013-07-27 14:33:00,81.8,68.0,29.92,ENE,57,10.4,10.4,63,0.00,CLR,,0.00,1118.0,WeatherDisplay:10.37,2013-07-28 00:33:00,
2013-07-27 14:38:00,81.7,68.3,29.92,ENE,60,12.7,12.7,64,0.00,CLR,,0.00,1053.0,WeatherDisplay:10.37,2013-07-28 00:38:00,
2013-07-27 14:43:00,81.7,68.3,29.92,ENE,67,10.4,10.4,64,0.00,CLR,,0.00,902.0,WeatherDisplay:10.37,2013-07-28 00:43:00,
2013-07-27 14:48:00,81.7,68.3,29.92,ENE,63,8.1,8.1,64,0.00,BKN,,0.00,1074.0,WeatherDisplay:10.37,2013-07-28 00:48:00,
2013-07-27 14:53:00,81.7,68.3,29.91,NE,53,13.8,13.8,64,0.00,FEW,,0.00,554.0,WeatherDisplay:10.37,2013-07-28 00:53:00,
2013-07-27 14:58:00,81.7,68.3,29.91,NNE,25,6.9,6.9,64,0.00,CLR,,0.00,788.0,WeatherDisplay:10.37,2013-07-28 00:58:00,
2013-07-27 15:03:00,81.9,68.5,29.91,ENE,69,12.0,12.0,64,0.00,CLR,,0.00,585.0,WeatherDisplay:10.37,2013-07-28 01:03:00,
2013-07-27 15:08:00,81.4,68.1,29.91,NE,34,10.4,10.4,64,0.00,CLR,,0.00,1049.0,WeatherDisplay:10.37,2013-07-28 01:08:00,
2013-07-27 15:13:00,81.2,67.9,29.91,NE,52,6.9,6.9,64,0.00,CLR,,0.00,1060.0,WeatherDisplay:10.37,2013-07-28 01:13:00,
2013-07-27 15:18:00,81.3,68.0,29.91,ENE,63,9.2,9.2,64,0.00,FEW,,0.00,515.0,WeatherDisplay:10.37,2013-07-28 01:18:00,
2013-07-27 15:23:00,81.4,68.5,29.91,East,83,11.5,11.5,65,0.00,FEW,,0.00,515.0,WeatherDisplay:10.37,2013-07-28 01:23:00,
2013-07-27 15:28:00,81.0,68.1,29.91,ENE,63,11.5,11.5,65,0.00,BKN,,0.00,292.0,WeatherDisplay:10.37,2013-07-28 01:28:00,
2013-07-27 15:33:00,80.8,68.4,29.92,ENE,58,13.0,13.0,66,0.00,CLR,,0.00,895.0,WeatherDisplay:10.37,2013-07-28 01:33:00,
2013-07-27 15:38:00,81.0,68.6,29.91,NE,56,11.5,11.5,66,0.00,CLR,,0.00,997.0,WeatherDisplay:10.37,2013-07-28 01:38:00,
2013-07-27 15:43:00,80.9,68.5,29.91,ENE,74,11.5,11.5,66,0.00,CLR,,0.00,997.0,WeatherDisplay:10.37,2013-07-28 01:43:00,
2013-07-27 15:48:00,80.8,68.4,29.91,ENE,69,11.5,11.5,66,0.00,CLR,,0.00,993.0,WeatherDisplay:10.37,2013-07-28 01:48:00,
2013-07-27 15:53:00,80.6,68.6,29.91,East,84,13.8,13.8,67,0.00,CLR,,0.00,840.0,WeatherDisplay:10.37,2013-07-28 01:53:00,
2013-07-27 15:58:00,80.5,69.0,29.91,East,87,11.5,11.5,68,0.00,CLR,,0.00,772.0,WeatherDisplay:10.37,2013-07-28 01:58:00,
2013-07-27 16:03:00,80.4,68.9,29.91,East,86,13.8,13.8,68,0.00,CLR,,0.00,814.0,WeatherDisplay:10.37,2013-07-28 02:03:00,
2013-07-27 16:08:00,80.0,68.9,29.90,NE,55,10.4,10.4,69,0.00,CLR,,0.00,652.0,WeatherDisplay:10.37,2013-07-28 02:08:00,
2013-07-27 16:13:00,79.6,68.5,29.90,East,85,9.0,9.0,69,0.00,CLR,,0.00,687.0,WeatherDisplay:10.37,2013-07-28 02:13:00,
2013-07-27 16:18:00,79.4,68.8,29.90,NE,45,15.0,15.0,70,0.00,CLR,,0.00,714.0,WeatherDisplay:10.37,2013-07-28 02:18:00,
2013-07-27 16:23:00,79.3,68.7,29.90,ENE,62,10.4,10.4,70,0.00,CLR,,0.00,770.0,WeatherDisplay:10.37,2013-07-28 02:23:00,
2013-07-27 16:28:00,79.2,68.6,29.90,East,85,11.5,11.5,70,0.00,CLR,,0.00,645.0,WeatherDisplay:10.37,2013-07-28 02:28:00,
2013-07-27 16:33:00,79.1,68.5,29.90,ENE,61,11.5,11.5,70,0.00,CLR,,0.00,647.0,WeatherDisplay:10.37,2013-07-28 02:33:00,
2013-07-27 16:38:00,78.7,67.7,29.90,NNE,24,13.8,13.8,69,0.00,CLR,,0.00,745.0,WeatherDisplay:10.37,2013-07-28 02:38:00,
2013-07-27 16:43:00,78.7,68.1,29.90,East,96,10.4,10.4,70,0.00,CLR,,0.00,513.0,WeatherDisplay:10.37,2013-07-28 02:43:00,
2013-07-27 16:48:00,78.8,68.2,29.90,ENE,57,15.0,15.0,70,0.00,CLR,,0.00,613.0,WeatherDisplay:10.37,2013-07-28 02:48:00,
2013-07-27 16:53:00,78.7,68.1,29.90,ENE,69,11.5,11.5,70,0.00,CLR,,0.00,615.0,WeatherDisplay:10.37,2013-07-28 02:53:00,
2013-07-27 16:58:00,78.6,68.0,29.90,NNE,24,12.7,12.7,70,0.00,CLR,,0.00,494.0,WeatherDisplay:10.37,2013-07-28 02:58:00,
2013-07-27 17:03:00,78.5,67.9,29.90,NE,53,11.5,11.5,70,0.00,CLR,,0.00,497.0,WeatherDisplay:10.37,2013-07-28 03:03:00,
2013-07-27 17:08:00,78.6,68.0,29.90,ENE,58,10.4,10.4,70,0.00,CLR,,0.00,529.0,WeatherDisplay:10.37,2013-07-28 03:08:00,
2013-07-27 17:13:00,78.5,67.9,29.90,North,360,9.0,9.0,70,0.00,CLR,,0.00,462.0,WeatherDisplay:10.37,2013-07-28 03:13:00,
2013-07-27 17:18:00,78.4,67.8,29.90,ENE,67,5.0,5.0,70,0.00,CLR,,0.00,578.0,WeatherDisplay:10.37,2013-07-28 03:18:00,
2013-07-27 17:23:00,78.4,67.8,29.91,East,85,9.2,9.2,70,0.00,CLR,,0.00,478.0,WeatherDisplay:10.37,2013-07-28 03:23:00,
2013-07-27 17:28:00,78.3,68.1,29.91,ENE,67,12.7,12.7,71,0.00,CLR,,0.00,325.0,WeatherDisplay:10.37,2013-07-28 03:28:00,
2013-07-27 17:33:00,78.0,67.8,29.91,NNE,24,12.7,12.7,71,0.00,CLR,,0.00,204.0,WeatherDisplay:10.37,2013-07-28 03:33:00,
2013-07-27 17:38:00,77.3,68.0,29.92,East,81,10.4,10.4,73,0.00,BKN,,0.00,107.0,WeatherDisplay:10.37,2013-07-28 03:38:00,
2013-07-27 17:43:00,76.8,68.3,29.92,East,92,9.2,9.2,75,0.00,BKN,,0.00,95.0,WeatherDisplay:10.37,2013-07-28 03:43:00,
2013-07-27 17:48:00,76.3,68.2,29.92,NE,44,11.0,11.0,76,0.00,BKN,,0.00,88.0,WeatherDisplay:10.37,2013-07-28 03:48:00,
2013-07-27 17:53:00,75.7,68.0,29.92,ENE,61,15.0,15.0,77,0.00,FEW,,0.00,146.0,WeatherDisplay:10.37,2013-07-28 03:53:00,
2013-07-27 17:58:00,75.1,67.8,29.92,NE,42,9.2,9.2,78,0.00,FEW,,0.00,114.0,WeatherDisplay:10.37,2013-07-28 03:58:00,
2013-07-27 18:01:00,74.9,67.9,29.92,ENE,62,12.0,12.0,79,0.00,SCT,,0.00,79.0,WeatherDisplay:10.37,2013-07-28 04:01:00,
2013-07-27 18:06:00,74.3,67.7,29.92,ENE,61,11.5,11.5,80,0.00,SCT,,0.00,93.0,WeatherDisplay:10.37,2013-07-28 04:06:00,
2013-07-27 18:11:00,74.0,67.8,29.92,ENE,57,9.2,9.2,81,0.00,CLR,,0.00,141.0,WeatherDisplay:10.37,2013-07-28 04:11:00,
2013-07-27 18:16:00,74.0,67.8,29.93,ENE,62,9.0,9.0,81,0.00,BKN,,0.00,69.0,WeatherDisplay:10.37,2013-07-28 04:16:00,
2013-07-27 18:21:00,74.0,67.8,29.93,North,355,9.2,9.2,81,0.00,BKN,,0.00,54.0,WeatherDisplay:10.37,2013-07-28 04:21:00,
2013-07-27 18:26:00,73.9,67.7,29.93,NW,326,9.2,9.2,81,0.00,CLR,,0.00,93.0,WeatherDisplay:10.37,2013-07-28 04:26:00,
2013-07-27 18:31:00,73.7,67.9,29.93,ENE,57,6.9,6.9,82,0.00,FEW,,0.00,65.0,WeatherDisplay:10.37,2013-07-28 04:31:00,
2013-07-27 18:36:00,73.7,67.5,29.93,NNE,18,6.9,6.9,81,0.00,BKN,,0.00,28.0,WeatherDisplay:10.37,2013-07-28 04:36:00,
2013-07-27 18:41:00,73.6,67.4,29.93,NE,55,6.9,6.9,81,0.00,CLR,,0.00,25.0,WeatherDisplay:10.37,2013-07-28 04:41:00,
2013-07-27 18:47:00,73.6,67.4,29.93,East,82,5.0,5.0,81,0.00,BKN,,0.00,21.0,WeatherDisplay:10.37,2013-07-28 04:47:00,
2013-07-27 18:52:00,73.6,67.4,29.93,NNE,30,11.5,11.5,81,0.00,BKN,,0.00,18.0,WeatherDisplay:10.37,2013-07-28 04:52:00,
2013-07-27 18:57:00,73.6,67.4,29.93,North,5,9.2,9.2,81,0.00,CLR,,0.00,11.0,WeatherDisplay:10.37,2013-07-28 04:57:00,
2013-07-27 19:02:00,73.6,67.4,29.93,NE,51,9.2,9.2,81,0.00,CLR,,0.00,7.0,WeatherDisplay:10.37,2013-07-28 05:02:00,
2013-07-27 19:07:00,73.7,67.5,29.93,NE,53,5.0,5.0,81,0.00,CLR,,0.00,5.0,WeatherDisplay:10.37,2013-07-28 05:07:00,
2013-07-27 19:12:00,73.7,67.5,29.93,ENE,67,4.6,4.6,81,0.00,CLR,,0.00,0.0,WeatherDisplay:10.37,2013-07-28 05:12:00,
2013-07-27 19:17:00,73.7,67.5,29.94,ENE,61,9.2,9.2,81,0.00,CLR,,0.00,0.0,WeatherDisplay:10.37,2013-07-28 05:17:00,
2013-07-27 19:22:00,73.7,67.1,29.94,ENE,67,6.9,6.9,80,0.00,CLR,,0.00,0.0,WeatherDisplay:10.37,2013-07-28 05:22:00,
2013-07-27 19:27:00,73.7,67.1,29.94,NNE,17,15.0,15.0,80,0.00,CLR,,0.00,0.0,WeatherDisplay:10.37,2013-07-28 05:27:00,
2013-07-27 19:32:00,73.6,67.4,29.94,ENE,74,9.2,9.2,81,0.00,CLR,,0.00,0.0,WeatherDisplay:10.37,2013-07-28 05:32:00,
2013-07-27 19:37:00,73.6,67.4,29.95,NE,46,9.2,9.2,81,0.00,CLR,,0.00,0.0,WeatherDisplay:10.37,2013-07-28 05:37:00,
2013-07-27 19:42:00,73.5,67.3,29.95,NE,46,8.1,8.1,81,0.00,CLR,,0.00,0.0,WeatherDisplay:10.37,2013-07-28 05:42:00,
2013-07-27 19:47:00,73.5,67.3,29.95,ENE,59,5.8,5.8,81,0.00,CLR,,0.00,0.0,WeatherDisplay:10.37,2013-07-28 05:47:00,
2013-07-27 19:52:00,73.4,67.2,29.95,NNE,24,3.5,3.5,81,0.00,CLR,,0.00,0.0,WeatherDisplay:10.37,2013-07-28 05:52:00,
2013-07-27 19:57:00,73.4,67.6,29.95,North,360,8.1,8.1,82,0.00,CLR,,0.00,0.0,WeatherDisplay:10.37,2013-07-28 05:57:00,
2013-07-27 20:02:00,73.3,67.5,29.95,NE,42,9.2,9.2,82,0.00,CLR,,0.00,0.0,WeatherDisplay:10.37,2013-07-28 06:02:00,
2013-07-27 20:07:00,73.1,67.6,29.95,NE,49,8.1,8.1,83,0.00,CLR,,0.00,0.0,WeatherDisplay:10.37,2013-07-28 06:07:00,
2013-07-27 20:12:00,72.9,67.4,29.95,NE,42,9.2,9.2,83,0.00,CLR,,0.00,0.0,WeatherDisplay:10.37,2013-07-28 06:12:00,
2013-07-27 20:17:00,72.6,67.5,29.96,ENE,62,10.0,10.0,84,0.00,CLR,,0.00,0.0,WeatherDisplay:10.37,2013-07-28 06:17:00,
2013-07-27 20:22:00,72.5,67.4,29.96,NE,36,9.2,9.2,84,0.00,CLR,,0.00,0.0,WeatherDisplay:10.37,2013-07-28 06:22:00,
2013-07-27 20:27:00,72.3,67.2,29.96,NE,51,10.4,10.4,84,0.00,CLR,,0.00,0.0,WeatherDisplay:10.37,2013-07-28 06:27:00,
2013-07-27 20:32:00,72.3,67.2,29.96,NE,39,11.5,11.5,84,0.00,CLR,,0.00,0.0,WeatherDisplay:10.37,2013-07-28 06:32:00,
2013-07-27 20:37:00,72.4,67.3,29.97,NNE,12,8.1,8.1,84,0.00,CLR,,0.00,0.0,WeatherDisplay:10.37,2013-07-28 06:37:00,
2013-07-27 20:42:00,72.4,67.3,29.97,NNW,347,9.2,9.2,84,0.00,CLR,,0.00,0.0,WeatherDisplay:10.37,2013-07-28 06:42:00,
2013-07-27 20:47:00,72.4,67.3,29.97,ENE,66,10.4,10.4,84,0.00,CLR,,0.00,0.0,WeatherDisplay:10.37,2013-07-28 06:47:00,
2013-07-27 20:52:00,72.4,66.9,29.97,ENE,62,9.2,9.2,83,0.00,CLR,,0.00,0.0,WeatherDisplay:10.37,2013-07-28 06:52:00,
2013-07-27 20:57:00,72.4,66.9,29.97,ENE,61,10.0,10.0,83,0.00,CLR,,0.00,0.0,WeatherDisplay:10.37,2013-07-28 06:57:00,
2013-07-27 21:02:00,72.5,67.0,29.97,NE,46,8.1,8.1,83,0.00,CLR,,0.00,0.0,WeatherDisplay:10.37,2013-07-28 07:02:00,
2013-07-27 21:07:00,72.5,67.0,29.97,NNE,28,8.1,8.1,83,0.00,CLR,,0.00,0.0,WeatherDisplay:10.37,2013-07-28 07:07:00,
2013-07-27 21:12:00,72.5,67.0,29.97,NNE,19,8.0,8.0,83,0.00,CLR,,0.00,0.0,WeatherDisplay:10.37,2013-07-28 07:12:00,
2013-07-27 21:17:00,72.5,67.0,29.97,NE,48,6.9,6.9,83,0.00,CLR,,0.00,0.0,WeatherDisplay:10.37,2013-07-28 07:17:00,
2013-07-27 21:22:00,72.5,67.0,29.97,NNE,17,10.4,10.4,83,0.00,CLR,,0.00,0.0,WeatherDisplay:10.37,2013-07-28 07:22:00,
2013-07-27 21:27:00,72.5,67.0,29.97,ENE,61,7.0,7.0,83,0.00,CLR,,0.00,0.0,WeatherDisplay:10.37,2013-07-28 07:27:00,
2013-07-27 21:32:00,72.4,66.9,29.97,ENE,57,9.2,9.2,83,0.00,CLR,,0.00,0.0,WeatherDisplay:10.37,2013-07-28 07:32:00,
2013-07-27 21:37:00,72.4,66.9,29.97,North,360,11.5,11.5,83,0.00,CLR,,0.00,0.0,WeatherDisplay:10.37,2013-07-28 07:37:00,
2013-07-27 21:42:00,72.4,66.9,29.97,ENE,74,9.2,9.2,83,0.00,CLR,,0.00,0.0,WeatherDisplay:10.37,2013-07-28 07:42:00,
2013-07-27 21:47:00,72.4,66.6,29.98,NNE,15,10.4,10.4,82,0.00,CLR,,0.00,0.0,WeatherDisplay:10.37,2013-07-28 07:47:00,
2013-07-27 21:52:00,72.4,66.6,29.98,NE,52,12.7,12.7,82,0.00,CLR,,0.00,0.0,WeatherDisplay:10.37,2013-07-28 07:52:00,
2013-07-27 21:57:00,72.5,66.3,29.98,NE,54,8.1,8.1,81,0.00,CLR,,0.00,0.0,WeatherDisplay:10.37,2013-07-28 07:57:00,
2013-07-27 22:02:00,72.6,66.4,29.98,NE,46,10.4,10.4,81,0.00,CLR,,0.00,0.0,WeatherDisplay:10.37,2013-07-28 08:02:00,
2013-07-27 22:07:00,72.7,66.2,29.98,NE,44,10.4,10.4,80,0.00,CLR,,0.00,0.0,WeatherDisplay:10.37,2013-07-28 08:07:00,
2013-07-27 22:12:00,72.7,66.2,29.98,NNE,30,9.2,9.2,80,0.00,CLR,,0.00,0.0,WeatherDisplay:10.37,2013-07-28 08:12:00,
2013-07-27 22:17:00,72.7,65.8,29.98,NE,51,9.2,9.2,79,0.00,CLR,,0.00,0.0,WeatherDisplay:10.37,2013-07-28 08:17:00,
2013-07-27 22:22:00,72.6,66.1,29.98,East,80,9.2,9.2,80,0.00,CLR,,0.00,0.0,WeatherDisplay:10.37,2013-07-28 08:22:00,
2013-07-27 22:27:00,72.5,66.0,29.98,NE,40,11.5,11.5,80,0.00,CLR,,0.00,0.0,WeatherDisplay:10.37,2013-07-28 08:27:00,
2013-07-27 22:32:00,72.5,65.6,29.98,North,360,12.7,12.7,79,0.00,CLR,,0.00,0.0,WeatherDisplay:10.37,2013-07-28 08:32:00,
2013-07-27 22:37:00,72.4,65.5,29.98,NE,55,10.4,10.4,79,0.00,CLR,,0.00,0.0,WeatherDisplay:10.37,2013-07-28 08:37:00,
2013-07-27 22:42:00,72.3,65.4,29.98,ENE,59,11.5,11.5,79,0.00,CLR,,0.00,0.0,WeatherDisplay:10.37,2013-07-28 08:42:00,
2013-07-27 22:47:00,72.2,65.3,29.98,North,11,9.2,9.2,79,0.00,CLR,,0.00,0.0,WeatherDisplay:10.37,2013-07-28 08:47:00,
2013-07-27 22:52:00,72.2,65.7,29.98,NNE,17,8.1,8.1,80,0.00,CLR,,0.00,0.0,WeatherDisplay:10.37,2013-07-28 08:52:00,
2013-07-27 22:57:00,72.1,65.6,29.98,NE,55,6.9,6.9,80,0.00,CLR,,0.00,0.0,WeatherDisplay:10.37,2013-07-28 08:57:00,
2013-07-27 23:02:00,72.1,65.2,29.98,NNE,31,6.9,6.9,79,0.00,CLR,,0.00,0.0,WeatherDisplay:10.37,2013-07-28 09:02:00,
2013-07-27 23:07:00,72.0,65.1,29.98,NE,40,10.4,10.4,79,0.00,CLR,,0.00,0.0,WeatherDisplay:10.37,2013-07-28 09:07:00,
2013-07-27 23:12:00,71.9,65.0,29.98,NNE,18,10.4,10.4,79,0.00,CLR,,0.00,0.0,WeatherDisplay:10.37,2013-07-28 09:12:00,
2013-07-27 23:17:00,71.7,64.8,29.98,ENE,59,8.1,8.1,79,0.00,CLR,,0.00,0.0,WeatherDisplay:10.37,2013-07-28 09:17:00,
2013-07-27 23:22:00,71.6,64.7,29.97,NNE,31,11.5,11.5,79,0.00,CLR,,0.00,0.0,WeatherDisplay:10.37,2013-07-28 09:22:00,
2013-07-27 23:27:00,71.6,64.7,29.97,ENE,69,10.4,10.4,79,0.00,CLR,,0.00,0.0,WeatherDisplay:10.37,2013-07-28 09:27:00,
2013-07-27 23:32:00,71.5,64.6,29.97,East,92,9.0,9.0,79,0.00,CLR,,0.00,0.0,WeatherDisplay:10.37,2013-07-28 09:32:00,
2013-07-27 23:37:00,71.5,64.6,29.97,NNE,32,8.1,8.1,79,0.00,CLR,,0.00,0.0,WeatherDisplay:10.37,2013-07-28 09:37:00,
2013-07-27 23:42:00,71.5,64.6,29.97,NNE,31,8.1,8.1,79,0.00,CLR,,0.00,0.0,WeatherDisplay:10.37,2013-07-28 09:42:00,
2013-07-27 23:47:00,71.6,64.7,29.97,ENE,60,6.9,6.9,79,0.00,CLR,,0.00,0.0,WeatherDisplay:10.37,2013-07-28 09:47:00,
2013-07-27 23:52:00,71.6,64.4,29.97,NE,44,8.1,8.1,78,0.00,CLR,,0.00,0.0,WeatherDisplay:10.37,2013-07-28 09:52:00,
2013-07-27 23:57:00,71.6,64.4,29.97,NE,48,11.5,11.5,78,0.00,CLR,,0.00,0.0,WeatherDisplay:10.37,2013-07-28 09:57:00,